Ida — C4CZ2 — position and weather

sailwx.info

Track history (hours):
 
Tides and Currents Weather Stations Pressure Air Temp Water Temp Dewpoint Dewpoint Depression Visibility Wind Speed Wind Dir Waves Ship Positions

Ida

Last reported at 2016-Feb-02 19:33 UTC. Time now 2016-Feb-06 15:32 UTC.
Position N 55°34' E 015°14'.

Length 82 m; draft 2.9 m.

Type: Cargo ship. MMSI: 210319000.

Date/timePositionNaut miles runAvg speedWind from/ knotsBaromVisibWave heightAir tempDewpointWater temp
2016-Feb-02 19:33N 55°34' E 015°14'1010.5
2016-Feb-02 18:33N 55°29' E 014°58'1010.4
2016-Feb-02 17:33N 55°24' E 014°42'10 9.8
2016-Feb-02 16:33N 55°17' E 014°30'10 9.7
2016-Feb-02 15:33N 55°09' E 014°20'9 9.5
2016-Feb-02 14:33N 55°01' E 014°11'10 9.5
2016-Feb-02 13:33N 54°58' E 013°55'4210.3
2016-Feb-02 09:33N 54°42' E 012°49'1110.8
2016-Feb-02 08:33N 54°37' E 012°32'1110.9
2016-Feb-02 07:32N 54°30' E 012°17'1010.0
2016-Feb-02 06:34N 54°24' E 012°04'1111.3
2016-Feb-02 05:34N 54°25' E 011°45'1111.3
2016-Feb-02 04:34N 54°30' E 011°27'1312.9
2016-Feb-02 03:34N 54°35' E 011°06'1211.5
2016-Feb-02 02:33N 54°34' E 010°46'2110.4
2016-Feb-02 00:33N 54°26' E 010°14'5 4.7
2016-Feb-01 23:33N 54°22' E 010°08'6 6.0
2016-Feb-01 22:33N 54°21' E 009°58'8 7.7
2016-Feb-01 21:33N 54°21' E 009°45'31 7.2
2016-Feb-01 17:18N 53°56' E 009°13'3 4.2
2016-Feb-01 16:29N 53°54' E 009°09'0 0.0
2016-Feb-01 15:32N 53°54' E 009°09'0 0.0
2016-Feb-01 14:32N 53°54' E 009°09'1 0.5
2016-Feb-01 13:33N 53°54' E 009°09'2 2.3
2016-Feb-01 12:33N 53°53' E 009°05'7 7.2
2016-Feb-01 11:33N 53°50' E 008°53'6 6.4
2016-Feb-01 10:33N 53°52' E 008°43'6 6.3
2016-Feb-01 09:33N 53°57' E 008°36'8 8.2
2016-Feb-01 08:33N 53°59' E 008°23'9 9.5
2016-Feb-01 07:33N 53°59' E 008°07'10 9.5
2016-Feb-01 06:33N 53°57' E 007°51'10 9.7
2016-Feb-01 05:33N 53°54' E 007°35'1010.0
2016-Feb-01 04:32N 53°52' E 007°18'1010.4
2016-Feb-01 03:33N 53°50' E 007°01'1110.7
2016-Feb-01 02:33N 53°47' E 006°44'1111.2
2016-Feb-01 01:33N 53°44' E 006°25'1111.3
2016-Feb-01 00:33N 53°41' E 006°07'1111.3
2016-Jan-31 23:34N 53°37' E 005°49'1211.5
2016-Jan-31 22:33N 53°34' E 005°31'1211.5
2016-Jan-31 21:33N 53°28' E 005°13'9 4.7
2016-Jan-31 19:33N 53°20' E 005°08'9 8.9
2016-Jan-31 18:33N 53°13' E 005°18'7 6.7
2016-Jan-31 17:33N 53°07' E 005°22'8 8.1
2016-Jan-31 16:33N 53°03' E 005°11'8 8.0
2016-Jan-31 15:33N 53°04' E 004°58'5 5.4
2016-Jan-31 14:33N 52°60' E 004°52'7 7.0
2016-Jan-31 13:31N 52°56' E 005°03'3 3.3
2016-Jan-31 12:33N 52°54' E 005°07'9 9.0
2016-Jan-31 11:33N 52°48' E 005°17'6 5.8
2016-Jan-31 10:31N 52°41' E 005°18'0 0.0
2016-Jan-31 09:31N 52°41' E 005°18'0 0.2
2016-Jan-31 08:32N 52°41' E 005°18'1 0.7
2016-Jan-31 07:32N 52°41' E 005°16'0 0.0
2016-Jan-31 06:32N 52°41' E 005°16'0 0.0
2016-Jan-31 05:32N 52°41' E 005°16'0 0.0
2016-Jan-31 04:32N 52°41' E 005°16'0 0.0
2016-Jan-31 03:32N 52°41' E 005°16'0 0.0
2016-Jan-31 02:32N 52°41' E 005°16'0 0.0
2016-Jan-31 01:32N 52°41' E 005°16'0 0.0
2016-Jan-31 00:32N 52°41' E 005°16'0 0.0
2016-Jan-30 23:32N 52°41' E 005°16'0 0.0
2016-Jan-30 22:32N 52°41' E 005°16'0 0.0
2016-Jan-30 21:32N 52°41' E 005°16'0 0.0
2016-Jan-30 20:32N 52°41' E 005°16'0 0.0
2016-Jan-30 19:32N 52°41' E 005°16'0 0.0
2016-Jan-30 18:32N 52°41' E 005°16'0 0.0
2016-Jan-30 17:32N 52°41' E 005°16'0 0.0
2016-Jan-30 16:32N 52°41' E 005°16'0 0.0
2016-Jan-30 15:32N 52°41' E 005°16'1 0.8
2016-Jan-30 14:33N 52°41' E 005°18'0 0.1
2016-Jan-30 13:33N 52°42' E 005°18'2 1.7
2016-Jan-30 12:34N 52°43' E 005°19'1010.1
2016-Jan-30 11:33N 52°53' E 005°17'9 8.9
2016-Jan-30 10:33N 53°02' E 005°20'3 2.6
2016-Jan-30 09:33N 53°04' E 005°20'4 4.0
2016-Jan-30 08:33N 53°08' E 005°23'7 7.2
2016-Jan-30 07:33N 53°14' E 005°16'8 7.7
2016-Jan-30 06:33N 53°19' E 005°07'6 2.6
2016-Jan-30 04:23N 53°23' E 005°00'3 3.3
2016-Jan-30 03:32N 53°25' E 005°04'3 3.2
2016-Jan-30 02:33N 53°27' E 005°08'3 3.4
2016-Jan-30 01:33N 53°28' E 005°13'3 3.4
2016-Jan-30 00:33N 53°30' E 005°19'4 3.8
2016-Jan-29 23:34N 53°31' E 005°25'4 4.0
2016-Jan-29 22:33N 53°32' E 005°31'3 3.2
2016-Jan-29 21:34N 53°33' E 005°36'3 3.4
2016-Jan-29 20:33N 53°34' E 005°42'3 3.2
2016-Jan-29 19:34N 53°35' E 005°47'4 3.7
2016-Jan-29 18:33N 53°36' E 005°52'5 4.7
2016-Jan-29 17:34N 53°38' E 005°60'4 4.4
2016-Jan-29 16:33N 53°39' E 006°07'3 3.5
2016-Jan-29 15:33N 53°40' E 006°12'3 3.1
2016-Jan-29 14:33N 53°42' E 006°17'2 2.3
2016-Jan-29 13:30N 53°43' E 006°21'2 2.0
2016-Jan-29 12:33N 53°45' E 006°22'2 2.2
2016-Jan-29 11:34N 53°47' E 006°23'3 2.5
2016-Jan-29 10:33N 53°49' E 006°25'1 1.4
2016-Jan-29 09:33N 53°50' E 006°27'2 2.4
2016-Jan-29 08:33N 53°51' E 006°31'4 3.7
2016-Jan-29 07:33N 53°52' E 006°37'5 5.0
2016-Jan-29 06:33N 53°53' E 006°45'6 6.0
2016-Jan-29 05:34N 53°55' E 006°54'6 5.6
2016-Jan-29 04:33N 53°57' E 007°03'15 4.9
2016-Jan-29 01:33N 54°00' E 007°27'5 5.1
2016-Jan-29 00:33N 54°02' E 007°36'5 4.7
2016-Jan-28 23:33N 54°02' E 007°44'4 4.2
2016-Jan-28 22:33N 54°02' E 007°51'5 5.0
2016-Jan-28 21:33N 54°01' E 007°59'6 6.0
2016-Jan-28 20:33N 54°01' E 008°09'9 8.6
2016-Jan-28 19:34N 53°60' E 008°24'1212.2
2016-Jan-28 18:33N 53°54' E 008°42'1111.2
2016-Jan-28 17:33N 53°52' E 009°01'5 5.0
2016-Jan-28 16:32N 53°54' E 009°09'29 5.6
2016-Jan-28 11:25N 54°17' E 009°38'7 7.7
2016-Jan-28 10:32N 54°21' E 009°47'8 7.8
2016-Jan-28 09:33N 54°21' E 009°60'5 5.4
2016-Jan-28 08:33N 54°22' E 010°09'1 1.1
2016-Jan-28 07:33N 54°22' E 010°10'0 0.1
2016-Jan-28 06:33N 54°22' E 010°10'2 2.1
2016-Jan-28 05:33N 54°24' E 010°12'13 9.3
2016-Jan-28 04:10N 54°33' E 010°28'6 9.8
2016-Jan-28 03:33N 54°36' E 010°37'10 9.6
2016-Jan-28 02:33N 54°43' E 010°49'1312.8
2016-Jan-28 01:33N 54°55' E 010°54'1111.0
2016-Jan-28 00:33N 55°05' E 011°02'  
2016-Jan-24 07:33N 56°08' E 012°32'8 7.8
2016-Jan-24 06:33N 56°01' E 012°41'9 8.7
2016-Jan-24 05:33N 55°53' E 012°44'9 9.2
2016-Jan-24 04:33N 55°44' E 012°42'8 8.2
2016-Jan-24 03:33N 55°36' E 012°42'9 8.6
2016-Jan-24 02:33N 55°27' E 012°43'9 8.8
2016-Jan-24 01:33N 55°18' E 012°43'9 9.2
2016-Jan-24 00:33N 55°16' E 012°59'21 9.5
2016-Jan-23 22:23N 55°15' E 013°35'8 9.6
2016-Jan-23 21:33N 55°15' E 013°49'10 9.5
2016-Jan-23 20:33N 55°14' E 014°06'9 8.8
2016-Jan-23 19:33N 55°17' E 014°20'  
Track history (hours):
 
Tides and Currents Weather Stations Pressure Air Temp Water Temp Dewpoint Dewpoint Depression Visibility Wind Speed Wind Dir Waves Ship Positions

Ida

Last reported at 2016-Feb-02 19:33 UTC. Time now 2016-Feb-06 15:32 UTC.
Position N 55°34' E 015°14'.

Length 82 m; draft 2.9 m.

Type: Cargo ship. MMSI: 210319000.

Date/timePositionNaut miles runAvg speedWind from/ knotsBaromVisibWave heightAir tempDewpointWater temp
2016-Feb-02 19:33N 55°34' E 015°14'1010.5
2016-Feb-02 18:33N 55°29' E 014°58'1010.4
2016-Feb-02 17:33N 55°24' E 014°42'10 9.8
2016-Feb-02 16:33N 55°17' E 014°30'10 9.7
2016-Feb-02 15:33N 55°09' E 014°20'9 9.5
2016-Feb-02 14:33N 55°01' E 014°11'10 9.5
2016-Feb-02 13:33N 54°58' E 013°55'4210.3
2016-Feb-02 09:33N 54°42' E 012°49'1110.8
2016-Feb-02 08:33N 54°37' E 012°32'1110.9
2016-Feb-02 07:32N 54°30' E 012°17'1010.0
2016-Feb-02 06:34N 54°24' E 012°04'1111.3
2016-Feb-02 05:34N 54°25' E 011°45'1111.3
2016-Feb-02 04:34N 54°30' E 011°27'1312.9
2016-Feb-02 03:34N 54°35' E 011°06'1211.5
2016-Feb-02 02:33N 54°34' E 010°46'2110.4
2016-Feb-02 00:33N 54°26' E 010°14'5 4.7
2016-Feb-01 23:33N 54°22' E 010°08'6 6.0
2016-Feb-01 22:33N 54°21' E 009°58'8 7.7
2016-Feb-01 21:33N 54°21' E 009°45'31 7.2
2016-Feb-01 17:18N 53°56' E 009°13'3 4.2
2016-Feb-01 16:29N 53°54' E 009°09'0 0.0
2016-Feb-01 15:32N 53°54' E 009°09'0 0.0
2016-Feb-01 14:32N 53°54' E 009°09'1 0.5
2016-Feb-01 13:33N 53°54' E 009°09'2 2.3
2016-Feb-01 12:33N 53°53' E 009°05'7 7.2
2016-Feb-01 11:33N 53°50' E 008°53'6 6.4
2016-Feb-01 10:33N 53°52' E 008°43'6 6.3
2016-Feb-01 09:33N 53°57' E 008°36'8 8.2
2016-Feb-01 08:33N 53°59' E 008°23'9 9.5
2016-Feb-01 07:33N 53°59' E 008°07'10 9.5
2016-Feb-01 06:33N 53°57' E 007°51'10 9.7
2016-Feb-01 05:33N 53°54' E 007°35'1010.0
2016-Feb-01 04:32N 53°52' E 007°18'1010.4
2016-Feb-01 03:33N 53°50' E 007°01'1110.7
2016-Feb-01 02:33N 53°47' E 006°44'1111.2
2016-Feb-01 01:33N 53°44' E 006°25'1111.3
2016-Feb-01 00:33N 53°41' E 006°07'1111.3
2016-Jan-31 23:34N 53°37' E 005°49'1211.5
2016-Jan-31 22:33N 53°34' E 005°31'1211.5
2016-Jan-31 21:33N 53°28' E 005°13'9 4.7
2016-Jan-31 19:33N 53°20' E 005°08'9 8.9
2016-Jan-31 18:33N 53°13' E 005°18'7 6.7
2016-Jan-31 17:33N 53°07' E 005°22'8 8.1
2016-Jan-31 16:33N 53°03' E 005°11'8 8.0
2016-Jan-31 15:33N 53°04' E 004°58'5 5.4
2016-Jan-31 14:33N 52°60' E 004°52'7 7.0
2016-Jan-31 13:31N 52°56' E 005°03'3 3.3
2016-Jan-31 12:33N 52°54' E 005°07'9 9.0
2016-Jan-31 11:33N 52°48' E 005°17'6 5.8
2016-Jan-31 10:31N 52°41' E 005°18'0 0.0
2016-Jan-31 09:31N 52°41' E 005°18'0 0.2
2016-Jan-31 08:32N 52°41' E 005°18'1 0.7
2016-Jan-31 07:32N 52°41' E 005°16'0 0.0
2016-Jan-31 06:32N 52°41' E 005°16'0 0.0
2016-Jan-31 05:32N 52°41' E 005°16'0 0.0
2016-Jan-31 04:32N 52°41' E 005°16'0 0.0
2016-Jan-31 03:32N 52°41' E 005°16'0 0.0
2016-Jan-31 02:32N 52°41' E 005°16'0 0.0
2016-Jan-31 01:32N 52°41' E 005°16'0 0.0
2016-Jan-31 00:32N 52°41' E 005°16'0 0.0
2016-Jan-30 23:32N 52°41' E 005°16'0 0.0
2016-Jan-30 22:32N 52°41' E 005°16'0 0.0
2016-Jan-30 21:32N 52°41' E 005°16'0 0.0
2016-Jan-30 20:32N 52°41' E 005°16'0 0.0
2016-Jan-30 19:32N 52°41' E 005°16'0 0.0
2016-Jan-30 18:32N 52°41' E 005°16'0 0.0
2016-Jan-30 17:32N 52°41' E 005°16'0 0.0
2016-Jan-30 16:32N 52°41' E 005°16'0 0.0
2016-Jan-30 15:32N 52°41' E 005°16'1 0.8
2016-Jan-30 14:33N 52°41' E 005°18'0 0.1
2016-Jan-30 13:33N 52°42' E 005°18'2 1.7
2016-Jan-30 12:34N 52°43' E 005°19'1010.1
2016-Jan-30 11:33N 52°53' E 005°17'9 8.9
2016-Jan-30 10:33N 53°02' E 005°20'3 2.6
2016-Jan-30 09:33N 53°04' E 005°20'4 4.0
2016-Jan-30 08:33N 53°08' E 005°23'7 7.2
2016-Jan-30 07:33N 53°14' E 005°16'8 7.7
2016-Jan-30 06:33N 53°19' E 005°07'6 2.6
2016-Jan-30 04:23N 53°23' E 005°00'3 3.3
2016-Jan-30 03:32N 53°25' E 005°04'3 3.2
2016-Jan-30 02:33N 53°27' E 005°08'3 3.4
2016-Jan-30 01:33N 53°28' E 005°13'3 3.4
2016-Jan-30 00:33N 53°30' E 005°19'4 3.8
2016-Jan-29 23:34N 53°31' E 005°25'4 4.0
2016-Jan-29 22:33N 53°32' E 005°31'3 3.2
2016-Jan-29 21:34N 53°33' E 005°36'3 3.4
2016-Jan-29 20:33N 53°34' E 005°42'3 3.2
2016-Jan-29 19:34N 53°35' E 005°47'4 3.7
2016-Jan-29 18:33N 53°36' E 005°52'5 4.7
2016-Jan-29 17:34N 53°38' E 005°60'4 4.4
2016-Jan-29 16:33N 53°39' E 006°07'3 3.5
2016-Jan-29 15:33N 53°40' E 006°12'3 3.1
2016-Jan-29 14:33N 53°42' E 006°17'2 2.3
2016-Jan-29 13:30N 53°43' E 006°21'2 2.0
2016-Jan-29 12:33N 53°45' E 006°22'2 2.2
2016-Jan-29 11:34N 53°47' E 006°23'3 2.5
2016-Jan-29 10:33N 53°49' E 006°25'1 1.4
2016-Jan-29 09:33N 53°50' E 006°27'2 2.4
2016-Jan-29 08:33N 53°51' E 006°31'4 3.7
2016-Jan-29 07:33N 53°52' E 006°37'5 5.0
2016-Jan-29 06:33N 53°53' E 006°45'6 6.0
2016-Jan-29 05:34N 53°55' E 006°54'6 5.6
2016-Jan-29 04:33N 53°57' E 007°03'15 4.9
2016-Jan-29 01:33N 54°00' E 007°27'5 5.1
2016-Jan-29 00:33N 54°02' E 007°36'5 4.7
2016-Jan-28 23:33N 54°02' E 007°44'4 4.2
2016-Jan-28 22:33N 54°02' E 007°51'5 5.0
2016-Jan-28 21:33N 54°01' E 007°59'6 6.0
2016-Jan-28 20:33N 54°01' E 008°09'9 8.6
2016-Jan-28 19:34N 53°60' E 008°24'1212.2
2016-Jan-28 18:33N 53°54' E 008°42'1111.2
2016-Jan-28 17:33N 53°52' E 009°01'5 5.0
2016-Jan-28 16:32N 53°54' E 009°09'29 5.6
2016-Jan-28 11:25N 54°17' E 009°38'7 7.7
2016-Jan-28 10:32N 54°21' E 009°47'8 7.8
2016-Jan-28 09:33N 54°21' E 009°60'5 5.4
2016-Jan-28 08:33N 54°22' E 010°09'1 1.1
2016-Jan-28 07:33N 54°22' E 010°10'0 0.1
2016-Jan-28 06:33N 54°22' E 010°10'2 2.1
2016-Jan-28 05:33N 54°24' E 010°12'13 9.3
2016-Jan-28 04:10N 54°33' E 010°28'6 9.8
2016-Jan-28 03:33N 54°36' E 010°37'10 9.6
2016-Jan-28 02:33N 54°43' E 010°49'1312.8
2016-Jan-28 01:33N 54°55' E 010°54'1111.0
2016-Jan-28 00:33N 55°05' E 011°02'  
2016-Jan-24 07:33N 56°08' E 012°32'8 7.8
2016-Jan-24 06:33N 56°01' E 012°41'9 8.7
2016-Jan-24 05:33N 55°53' E 012°44'9 9.2
2016-Jan-24 04:33N 55°44' E 012°42'8 8.2
2016-Jan-24 03:33N 55°36' E 012°42'9 8.6
2016-Jan-24 02:33N 55°27' E 012°43'9 8.8
2016-Jan-24 01:33N 55°18' E 012°43'9 9.2
2016-Jan-24 00:33N 55°16' E 012°59'21 9.5
2016-Jan-23 22:23N 55°15' E 013°35'8 9.6
2016-Jan-23 21:33N 55°15' E 013°49'10 9.5
2016-Jan-23 20:33N 55°14' E 014°06'9 8.8
2016-Jan-23 19:33N 55°17' E 014°20'  

Dump ship's entire track history